sensor_id;sensor_type;location;lat;lon;timestamp;P1;durP1;ratioP1;P2;durP2;ratioP2
44732;SDS011;30460;50.836;4.390;2022-09-13T00:00:38;6.15;;;4.50;;
44732;SDS011;30460;50.836;4.390;2022-09-13T00:03:05;5.63;;;4.15;;
44732;SDS011;30460;50.836;4.390;2022-09-13T00:05:32;5.13;;;4.25;;
44732;SDS011;30460;50.836;4.390;2022-09-13T00:07:58;5.00;;;4.50;;
44732;SDS011;30460;50.836;4.390;2022-09-13T00:10:24;5.72;;;4.85;;
44732;SDS011;30460;50.836;4.390;2022-09-13T00:12:51;4.43;;;4.00;;
44732;SDS011;30460;50.836;4.390;2022-09-13T00:15:17;4.65;;;4.10;;
44732;SDS011;30460;50.836;4.390;2022-09-13T00:17:43;5.95;;;4.30;;
44732;SDS011;30460;50.836;4.390;2022-09-13T00:20:09;5.88;;;4.15;;
44732;SDS011;30460;50.836;4.390;2022-09-13T00:22:35;4.45;;;4.03;;
44732;SDS011;30460;50.836;4.390;2022-09-13T00:25:02;6.20;;;3.95;;
44732;SDS011;30460;50.836;4.390;2022-09-13T00:27:28;4.30;;;3.88;;
44732;SDS011;30460;50.836;4.390;2022-09-13T00:29:54;4.40;;;4.00;;
44732;SDS011;30460;50.836;4.390;2022-09-13T00:32:20;4.90;;;4.28;;
44732;SDS011;30460;50.836;4.390;2022-09-13T00:34:46;4.63;;;4.10;;
44732;SDS011;30460;50.836;4.390;2022-09-13T00:37:12;4.68;;;3.95;;
44732;SDS011;30460;50.836;4.390;2022-09-13T00:39:38;5.28;;;4.45;;
44732;SDS011;30460;50.836;4.390;2022-09-13T00:42:04;6.30;;;3.83;;
44732;SDS011;30460;50.836;4.390;2022-09-13T00:47:16;4.20;;;3.80;;
44732;SDS011;30460;50.836;4.390;2022-09-13T00:49:44;4.70;;;3.90;;
44732;SDS011;30460;50.836;4.390;2022-09-13T00:52:13;4.15;;;3.75;;
44732;SDS011;30460;50.836;4.390;2022-09-13T00:54:45;4.93;;;3.55;;
44732;SDS011;30460;50.836;4.390;2022-09-13T00:57:12;4.15;;;3.75;;
44732;SDS011;30460;50.836;4.390;2022-09-13T00:59:44;5.57;;;4.10;;
44732;SDS011;30460;50.836;4.390;2022-09-13T01:02:11;4.72;;;3.95;;
44732;SDS011;30460;50.836;4.390;2022-09-13T01:04:37;4.57;;;3.67;;
44732;SDS011;30460;50.836;4.390;2022-09-13T01:07:05;4.00;;;2.97;;
44732;SDS011;30460;50.836;4.390;2022-09-13T01:09:31;3.70;;;3.17;;
44732;SDS011;30460;50.836;4.390;2022-09-13T01:12:05;3.47;;;3.17;;
44732;SDS011;30460;50.836;4.390;2022-09-13T01:14:34;3.40;;;2.63;;
44732;SDS011;30460;50.836;4.390;2022-09-13T01:17:00;4.40;;;3.10;;
44732;SDS011;30460;50.836;4.390;2022-09-13T01:19:26;5.45;;;2.60;;
44732;SDS011;30460;50.836;4.390;2022-09-13T01:42:48;4.03;;;3.58;;
44732;SDS011;30460;50.836;4.390;2022-09-13T01:53:06;3.38;;;3.08;;
44732;SDS011;30460;50.836;4.390;2022-09-13T02:06:37;3.00;;;2.70;;
44732;SDS011;30460;50.836;4.390;2022-09-13T02:09:10;3.05;;;2.78;;
44732;SDS011;30460;50.836;4.390;2022-09-13T02:11:36;3.67;;;3.00;;
44732;SDS011;30460;50.836;4.390;2022-09-13T02:16:35;3.33;;;3.03;;
44732;SDS011;30460;50.836;4.390;2022-09-13T02:19:06;3.10;;;2.80;;
44732;SDS011;30460;50.836;4.390;2022-09-13T02:21:34;3.72;;;3.17;;
44732;SDS011;30460;50.836;4.390;2022-09-13T02:24:06;3.47;;;2.97;;
44732;SDS011;30460;50.836;4.390;2022-09-13T02:26:33;2.78;;;2.58;;
44732;SDS011;30460;50.836;4.390;2022-09-13T02:29:00;2.78;;;2.58;;
44732;SDS011;30460;50.836;4.390;2022-09-13T02:31:29;3.22;;;2.92;;
44732;SDS011;30460;50.836;4.390;2022-09-13T02:33:58;2.85;;;2.63;;
44732;SDS011;30460;50.836;4.390;2022-09-13T02:36:28;2.92;;;2.72;;
44732;SDS011;30460;50.836;4.390;2022-09-13T02:38:58;3.13;;;2.70;;
44732;SDS011;30460;50.836;4.390;2022-09-13T02:44:13;3.53;;;2.78;;
44732;SDS011;30460;50.836;4.390;2022-09-13T02:47:25;2.95;;;2.72;;
44732;SDS011;30460;50.836;4.390;2022-09-13T02:49:33;2.83;;;2.63;;
44732;SDS011;30460;50.836;4.390;2022-09-13T02:54:53;3.60;;;2.33;;
44732;SDS011;30460;50.836;4.390;2022-09-13T02:57:30;2.72;;;2.33;;
44732;SDS011;30460;50.836;4.390;2022-09-13T02:59:57;3.20;;;2.40;;
44732;SDS011;30460;50.836;4.390;2022-09-13T03:02:24;2.33;;;2.10;;
44732;SDS011;30460;50.836;4.390;2022-09-13T03:04:52;3.53;;;2.30;;
44732;SDS011;30460;50.836;4.390;2022-09-13T03:07:18;3.22;;;2.42;;
44732;SDS011;30460;50.836;4.390;2022-09-13T03:09:45;2.40;;;2.15;;
44732;SDS011;30460;50.836;4.390;2022-09-13T03:30:11;2.67;;;2.40;;
44732;SDS011;30460;50.836;4.390;2022-09-13T03:43:18;2.60;;;2.40;;
44732;SDS011;30460;50.836;4.390;2022-09-13T03:45:44;2.63;;;2.42;;
44732;SDS011;30460;50.836;4.390;2022-09-13T03:48:11;2.53;;;2.30;;
44732;SDS011;30460;50.836;4.390;2022-09-13T03:50:39;4.32;;;3.15;;
44732;SDS011;30460;50.836;4.390;2022-09-13T03:53:09;4.78;;;2.85;;
44732;SDS011;30460;50.836;4.390;2022-09-13T03:55:39;3.80;;;2.78;;
44732;SDS011;30460;50.836;4.390;2022-09-13T03:58:07;3.42;;;2.40;;
44732;SDS011;30460;50.836;4.390;2022-09-13T04:00:33;2.92;;;2.45;;
44732;SDS011;30460;50.836;4.390;2022-09-13T04:02:59;3.92;;;2.47;;
44732;SDS011;30460;50.836;4.390;2022-09-13T04:05:25;2.55;;;2.30;;
44732;SDS011;30460;50.836;4.390;2022-09-13T04:07:51;2.70;;;2.50;;
44732;SDS011;30460;50.836;4.390;2022-09-13T04:10:17;2.75;;;2.55;;
44732;SDS011;30460;50.836;4.390;2022-09-13T04:12:43;2.40;;;2.20;;
44732;SDS011;30460;50.836;4.390;2022-09-13T04:15:09;2.58;;;2.38;;
44732;SDS011;30460;50.836;4.390;2022-09-13T04:17:35;4.15;;;2.90;;
44732;SDS011;30460;50.836;4.390;2022-09-13T04:20:01;2.83;;;2.50;;
44732;SDS011;30460;50.836;4.390;2022-09-13T04:22:29;2.70;;;2.50;;
44732;SDS011;30460;50.836;4.390;2022-09-13T04:24:55;4.15;;;3.00;;
44732;SDS011;30460;50.836;4.390;2022-09-13T04:27:21;4.35;;;2.60;;
44732;SDS011;30460;50.836;4.390;2022-09-13T04:29:48;3.47;;;2.83;;
44732;SDS011;30460;50.836;4.390;2022-09-13T04:32:14;3.50;;;2.60;;
44732;SDS011;30460;50.836;4.390;2022-09-13T04:34:40;2.78;;;2.58;;
44732;SDS011;30460;50.836;4.390;2022-09-13T04:37:06;3.40;;;2.47;;
44732;SDS011;30460;50.836;4.390;2022-09-13T04:39:32;2.47;;;2.28;;
44732;SDS011;30460;50.836;4.390;2022-09-13T04:41:58;2.58;;;2.38;;
44732;SDS011;30460;50.836;4.390;2022-09-13T04:44:24;2.70;;;2.42;;
44732;SDS011;30460;50.836;4.390;2022-09-13T04:46:50;2.67;;;2.28;;
44732;SDS011;30460;50.836;4.390;2022-09-13T04:49:16;4.20;;;2.40;;
44732;SDS011;30460;50.836;4.390;2022-09-13T04:51:44;2.30;;;2.10;;
44732;SDS011;30460;50.836;4.390;2022-09-13T04:54:10;2.92;;;2.47;;
44732;SDS011;30460;50.836;4.390;2022-09-13T04:56:36;3.97;;;2.40;;
44732;SDS011;30460;50.836;4.390;2022-09-13T04:59:02;3.33;;;2.47;;
44732;SDS011;30460;50.836;4.390;2022-09-13T05:01:29;3.45;;;2.47;;
44732;SDS011;30460;50.836;4.390;2022-09-13T05:03:54;3.13;;;2.38;;
44732;SDS011;30460;50.836;4.390;2022-09-13T05:06:21;4.82;;;3.45;;
44732;SDS011;30460;50.836;4.390;2022-09-13T05:08:51;2.60;;;2.40;;
44732;SDS011;30460;50.836;4.390;2022-09-13T05:11:19;2.85;;;2.42;;
44732;SDS011;30460;50.836;4.390;2022-09-13T05:13:49;5.32;;;2.28;;
44732;SDS011;30460;50.836;4.390;2022-09-13T05:16:29;2.70;;;2.47;;
44732;SDS011;30460;50.836;4.390;2022-09-13T05:18:55;3.78;;;3.03;;
44732;SDS011;30460;50.836;4.390;2022-09-13T05:21:22;3.72;;;3.10;;
44732;SDS011;30460;50.836;4.390;2022-09-13T05:23:52;3.88;;;3.20;;
44732;SDS011;30460;50.836;4.390;2022-09-13T05:26:18;7.22;;;3.97;;
44732;SDS011;30460;50.836;4.390;2022-09-13T05:28:45;2.58;;;2.38;;
44732;SDS011;30460;50.836;4.390;2022-09-13T05:31:18;3.25;;;2.47;;
44732;SDS011;30460;50.836;4.390;2022-09-13T05:33:45;6.78;;;4.82;;
44732;SDS011;30460;50.836;4.390;2022-09-13T05:36:12;2.80;;;2.60;;
44732;SDS011;30460;50.836;4.390;2022-09-13T05:38:38;2.90;;;2.60;;
44732;SDS011;30460;50.836;4.390;2022-09-13T05:41:04;2.97;;;2.65;;
44732;SDS011;30460;50.836;4.390;2022-09-13T05:43:31;2.85;;;2.65;;
44732;SDS011;30460;50.836;4.390;2022-09-13T05:46:03;2.70;;;2.50;;
44732;SDS011;30460;50.836;4.390;2022-09-13T05:48:30;3.00;;;2.70;;
44732;SDS011;30460;50.836;4.390;2022-09-13T05:51:20;2.95;;;2.50;;
44732;SDS011;30460;50.836;4.390;2022-09-13T05:53:45;4.50;;;3.28;;
44732;SDS011;30460;50.836;4.390;2022-09-13T05:56:12;3.55;;;2.50;;
44732;SDS011;30460;50.836;4.390;2022-09-13T05:58:39;3.42;;;2.83;;
44732;SDS011;30460;50.836;4.390;2022-09-13T06:01:06;4.50;;;3.13;;
44732;SDS011;30460;50.836;4.390;2022-09-13T06:03:33;4.15;;;2.88;;
44732;SDS011;30460;50.836;4.390;2022-09-13T06:05:59;3.08;;;2.78;;
44732;SDS011;30460;50.836;4.390;2022-09-13T06:08:25;5.20;;;3.10;;
44732;SDS011;30460;50.836;4.390;2022-09-13T06:10:52;3.95;;;2.95;;
44732;SDS011;30460;50.836;4.390;2022-09-13T06:13:18;2.88;;;2.58;;
44732;SDS011;30460;50.836;4.390;2022-09-13T06:15:46;3.88;;;3.40;;
44732;SDS011;30460;50.836;4.390;2022-09-13T06:18:12;3.67;;;2.90;;
44732;SDS011;30460;50.836;4.390;2022-09-13T06:20:38;3.40;;;2.50;;
44732;SDS011;30460;50.836;4.390;2022-09-13T06:23:04;3.85;;;3.05;;
44732;SDS011;30460;50.836;4.390;2022-09-13T06:25:30;4.50;;;3.03;;
44732;SDS011;30460;50.836;4.390;2022-09-13T06:27:56;3.15;;;2.85;;
44732;SDS011;30460;50.836;4.390;2022-09-13T06:30:22;10.27;;;5.43;;
44732;SDS011;30460;50.836;4.390;2022-09-13T06:32:49;9.80;;;6.22;;
44732;SDS011;30460;50.836;4.390;2022-09-13T06:35:15;8.10;;;4.63;;
44732;SDS011;30460;50.836;4.390;2022-09-13T06:37:42;6.53;;;4.47;;
44732;SDS011;30460;50.836;4.390;2022-09-13T06:40:08;5.97;;;4.07;;
44732;SDS011;30460;50.836;4.390;2022-09-13T06:42:34;3.22;;;2.83;;
44732;SDS011;30460;50.836;4.390;2022-09-13T06:45:00;3.90;;;3.20;;
44732;SDS011;30460;50.836;4.390;2022-09-13T06:47:26;4.78;;;3.42;;
44732;SDS011;30460;50.836;4.390;2022-09-13T06:49:52;4.43;;;3.40;;
44732;SDS011;30460;50.836;4.390;2022-09-13T06:52:18;4.28;;;3.30;;
44732;SDS011;30460;50.836;4.390;2022-09-13T06:54:44;4.22;;;3.50;;
44732;SDS011;30460;50.836;4.390;2022-09-13T06:57:11;4.55;;;3.50;;
44732;SDS011;30460;50.836;4.390;2022-09-13T06:59:37;6.03;;;3.75;;
44732;SDS011;30460;50.836;4.390;2022-09-13T07:02:03;4.13;;;3.53;;
44732;SDS011;30460;50.836;4.390;2022-09-13T07:04:29;11.98;;;5.65;;
44732;SDS011;30460;50.836;4.390;2022-09-13T07:06:55;10.07;;;5.68;;
44732;SDS011;30460;50.836;4.390;2022-09-13T07:09:21;14.93;;;6.43;;
44732;SDS011;30460;50.836;4.390;2022-09-13T07:11:48;12.02;;;6.00;;
44732;SDS011;30460;50.836;4.390;2022-09-13T07:14:17;6.38;;;4.45;;
44732;SDS011;30460;50.836;4.390;2022-09-13T07:16:43;6.03;;;4.35;;
44732;SDS011;30460;50.836;4.390;2022-09-13T07:19:14;4.18;;;3.53;;
44732;SDS011;30460;50.836;4.390;2022-09-13T07:21:40;5.65;;;4.40;;
44732;SDS011;30460;50.836;4.390;2022-09-13T07:24:07;8.77;;;4.88;;
44732;SDS011;30460;50.836;4.390;2022-09-13T07:26:33;8.57;;;5.22;;
44732;SDS011;30460;50.836;4.390;2022-09-13T07:29:00;15.35;;;6.47;;
44732;SDS011;30460;50.836;4.390;2022-09-13T07:31:28;6.60;;;4.50;;
44732;SDS011;30460;50.836;4.390;2022-09-13T07:33:55;13.00;;;6.32;;
44732;SDS011;30460;50.836;4.390;2022-09-13T07:36:22;11.52;;;6.05;;
44732;SDS011;30460;50.836;4.390;2022-09-13T07:38:48;14.50;;;6.82;;
44732;SDS011;30460;50.836;4.390;2022-09-13T07:41:15;10.70;;;6.68;;
44732;SDS011;30460;50.836;4.390;2022-09-13T07:43:43;5.45;;;3.88;;
44732;SDS011;30460;50.836;4.390;2022-09-13T07:46:12;5.88;;;4.40;;
44732;SDS011;30460;50.836;4.390;2022-09-13T07:48:40;7.93;;;4.40;;
44732;SDS011;30460;50.836;4.390;2022-09-13T07:51:16;5.20;;;4.43;;
44732;SDS011;30460;50.836;4.390;2022-09-13T07:53:44;5.70;;;4.57;;
44732;SDS011;30460;50.836;4.390;2022-09-13T07:56:11;4.70;;;3.88;;
44732;SDS011;30460;50.836;4.390;2022-09-13T07:58:38;5.22;;;4.30;;
44732;SDS011;30460;50.836;4.390;2022-09-13T08:01:08;5.90;;;4.13;;
44732;SDS011;30460;50.836;4.390;2022-09-13T08:03:36;7.78;;;4.18;;
44732;SDS011;30460;50.836;4.390;2022-09-13T08:06:03;6.95;;;4.00;;
44732;SDS011;30460;50.836;4.390;2022-09-13T08:08:29;7.93;;;4.03;;
44732;SDS011;30460;50.836;4.390;2022-09-13T08:10:56;13.95;;;8.48;;
44732;SDS011;30460;50.836;4.390;2022-09-13T08:13:22;11.30;;;4.57;;
44732;SDS011;30460;50.836;4.390;2022-09-13T08:15:48;7.40;;;4.65;;
44732;SDS011;30460;50.836;4.390;2022-09-13T08:18:17;5.22;;;4.03;;
44732;SDS011;30460;50.836;4.390;2022-09-13T08:20:44;6.53;;;4.22;;
44732;SDS011;30460;50.836;4.390;2022-09-13T08:23:10;7.20;;;4.10;;
44732;SDS011;30460;50.836;4.390;2022-09-13T08:25:37;8.75;;;4.80;;
44732;SDS011;30460;50.836;4.390;2022-09-13T08:28:07;8.23;;;4.50;;
44732;SDS011;30460;50.836;4.390;2022-09-13T08:30:35;10.45;;;4.85;;
44732;SDS011;30460;50.836;4.390;2022-09-13T08:33:05;11.38;;;5.38;;
44732;SDS011;30460;50.836;4.390;2022-09-13T08:35:31;7.97;;;4.30;;
44732;SDS011;30460;50.836;4.390;2022-09-13T08:37:58;8.73;;;4.35;;
44732;SDS011;30460;50.836;4.390;2022-09-13T08:40:26;8.93;;;5.10;;
44732;SDS011;30460;50.836;4.390;2022-09-13T08:43:05;7.07;;;4.10;;
44732;SDS011;30460;50.836;4.390;2022-09-13T08:45:36;12.05;;;4.47;;
44732;SDS011;30460;50.836;4.390;2022-09-13T08:48:03;6.47;;;4.05;;
44732;SDS011;30460;50.836;4.390;2022-09-13T08:50:33;6.53;;;4.35;;
44732;SDS011;30460;50.836;4.390;2022-09-13T08:53:21;9.73;;;4.80;;
44732;SDS011;30460;50.836;4.390;2022-09-13T08:56:08;8.68;;;4.00;;
44732;SDS011;30460;50.836;4.390;2022-09-13T09:06:54;7.30;;;4.50;;
44732;SDS011;30460;50.836;4.390;2022-09-13T09:09:26;6.90;;;3.95;;
44732;SDS011;30460;50.836;4.390;2022-09-13T09:14:23;5.25;;;4.13;;
44732;SDS011;30460;50.836;4.390;2022-09-13T09:16:57;5.32;;;4.47;;
44732;SDS011;30460;50.836;4.390;2022-09-13T09:19:27;8.95;;;5.53;;
44732;SDS011;30460;50.836;4.390;2022-09-13T09:21:58;10.35;;;5.07;;
44732;SDS011;30460;50.836;4.390;2022-09-13T09:24:25;11.25;;;6.13;;
44732;SDS011;30460;50.836;4.390;2022-09-13T09:27:12;9.25;;;5.80;;
44732;SDS011;30460;50.836;4.390;2022-09-13T09:29:39;14.73;;;6.43;;
44732;SDS011;30460;50.836;4.390;2022-09-13T09:35:02;8.48;;;5.82;;
44732;SDS011;30460;50.836;4.390;2022-09-13T09:37:31;12.60;;;6.30;;
44732;SDS011;30460;50.836;4.390;2022-09-13T09:39:59;12.23;;;6.25;;
44732;SDS011;30460;50.836;4.390;2022-09-13T09:42:27;10.32;;;5.50;;
44732;SDS011;30460;50.836;4.390;2022-09-13T09:45:01;8.80;;;5.00;;
44732;SDS011;30460;50.836;4.390;2022-09-13T09:47:28;10.25;;;5.35;;
44732;SDS011;30460;50.836;4.390;2022-09-13T09:50:01;8.13;;;4.35;;
44732;SDS011;30460;50.836;4.390;2022-09-13T09:52:37;8.70;;;4.80;;
44732;SDS011;30460;50.836;4.390;2022-09-13T09:55:16;9.35;;;5.05;;
44732;SDS011;30460;50.836;4.390;2022-09-13T09:57:52;16.33;;;5.75;;
44732;SDS011;30460;50.836;4.390;2022-09-13T10:00:19;10.40;;;4.63;;
44732;SDS011;30460;50.836;4.390;2022-09-13T10:02:46;5.22;;;3.60;;
44732;SDS011;30460;50.836;4.390;2022-09-13T10:05:15;11.98;;;4.88;;
44732;SDS011;30460;50.836;4.390;2022-09-13T10:07:48;9.95;;;5.03;;
44732;SDS011;30460;50.836;4.390;2022-09-13T10:10:22;10.38;;;4.90;;
44732;SDS011;30460;50.836;4.390;2022-09-13T10:12:51;7.57;;;5.15;;
44732;SDS011;30460;50.836;4.390;2022-09-13T10:15:18;8.77;;;4.03;;
44732;SDS011;30460;50.836;4.390;2022-09-13T10:18:05;5.10;;;3.40;;
44732;SDS011;30460;50.836;4.390;2022-09-13T10:20:32;4.45;;;3.53;;
44732;SDS011;30460;50.836;4.390;2022-09-13T10:23:15;7.03;;;4.18;;
44732;SDS011;30460;50.836;4.390;2022-09-13T10:25:44;12.50;;;5.35;;
44732;SDS011;30460;50.836;4.390;2022-09-13T10:28:15;11.15;;;4.72;;
44732;SDS011;30460;50.836;4.390;2022-09-13T10:30:46;10.90;;;4.88;;
44732;SDS011;30460;50.836;4.390;2022-09-13T10:33:27;8.10;;;4.95;;
44732;SDS011;30460;50.836;4.390;2022-09-13T10:35:55;6.93;;;4.68;;
44732;SDS011;30460;50.836;4.390;2022-09-13T10:38:29;8.25;;;5.00;;
44732;SDS011;30460;50.836;4.390;2022-09-13T10:40:56;7.00;;;4.38;;
44732;SDS011;30460;50.836;4.390;2022-09-13T10:43:23;7.13;;;4.32;;
44732;SDS011;30460;50.836;4.390;2022-09-13T10:45:49;3.65;;;3.35;;
44732;SDS011;30460;50.836;4.390;2022-09-13T10:48:16;11.30;;;5.07;;
44732;SDS011;30460;50.836;4.390;2022-09-13T10:53:33;8.93;;;4.50;;
44732;SDS011;30460;50.836;4.390;2022-09-13T10:55:59;8.07;;;4.47;;
44732;SDS011;30460;50.836;4.390;2022-09-13T10:58:26;9.52;;;4.32;;
44732;SDS011;30460;50.836;4.390;2022-09-13T11:29:45;7.43;;;3.90;;
44732;SDS011;30460;50.836;4.390;2022-09-13T11:34:51;7.40;;;3.53;;
44732;SDS011;30460;50.836;4.390;2022-09-13T11:37:27;5.88;;;3.13;;
44732;SDS011;30460;50.836;4.390;2022-09-13T11:45:14;4.70;;;3.35;;
44732;SDS011;30460;50.836;4.390;2022-09-13T11:47:47;5.97;;;3.70;;
44732;SDS011;30460;50.836;4.390;2022-09-13T11:55:27;4.13;;;3.55;;
44732;SDS011;30460;50.836;4.390;2022-09-13T11:57:54;4.63;;;3.63;;
44732;SDS011;30460;50.836;4.390;2022-09-13T12:00:22;7.35;;;4.03;;
44732;SDS011;30460;50.836;4.390;2022-09-13T12:05:21;5.55;;;4.10;;
44732;SDS011;30460;50.836;4.390;2022-09-13T12:12:39;8.35;;;3.92;;
44732;SDS011;30460;50.836;4.390;2022-09-13T12:15:07;9.68;;;3.85;;
44732;SDS011;30460;50.836;4.390;2022-09-13T12:20:28;4.68;;;3.47;;
44732;SDS011;30460;50.836;4.390;2022-09-13T12:22:53;5.13;;;3.40;;
44732;SDS011;30460;50.836;4.390;2022-09-13T12:25:30;4.57;;;3.50;;
44732;SDS011;30460;50.836;4.390;2022-09-13T12:28:02;11.73;;;3.92;;
44732;SDS011;30460;50.836;4.390;2022-09-13T12:30:36;10.82;;;3.72;;
44732;SDS011;30460;50.836;4.390;2022-09-13T12:33:04;7.22;;;4.50;;
44732;SDS011;30460;50.836;4.390;2022-09-13T12:35:32;5.82;;;3.78;;
44732;SDS011;30460;50.836;4.390;2022-09-13T12:38:09;5.30;;;3.60;;
44732;SDS011;30460;50.836;4.390;2022-09-13T12:50:58;9.00;;;4.10;;
44732;SDS011;30460;50.836;4.390;2022-09-13T12:53:43;4.40;;;3.35;;
44732;SDS011;30460;50.836;4.390;2022-09-13T13:01:20;3.85;;;3.10;;
44732;SDS011;30460;50.836;4.390;2022-09-13T13:03:55;5.20;;;3.70;;
44732;SDS011;30460;50.836;4.390;2022-09-13T13:08:58;3.42;;;2.72;;
44732;SDS011;30460;50.836;4.390;2022-09-13T13:11:26;4.03;;;3.20;;
44732;SDS011;30460;50.836;4.390;2022-09-13T13:13:57;3.55;;;3.10;;
44732;SDS011;30460;50.836;4.390;2022-09-13T13:19:05;3.55;;;2.90;;
44732;SDS011;30460;50.836;4.390;2022-09-13T13:21:47;3.08;;;2.78;;
44732;SDS011;30460;50.836;4.390;2022-09-13T13:26:46;3.67;;;2.97;;
44732;SDS011;30460;50.836;4.390;2022-09-13T13:31:43;3.70;;;3.35;;
44732;SDS011;30460;50.836;4.390;2022-09-13T13:39:09;3.95;;;3.30;;
44732;SDS011;30460;50.836;4.390;2022-09-13T13:41:38;3.40;;;3.10;;
44732;SDS011;30460;50.836;4.390;2022-09-13T13:46:42;4.30;;;3.88;;
44732;SDS011;30460;50.836;4.390;2022-09-13T13:59:52;3.90;;;3.47;;
44732;SDS011;30460;50.836;4.390;2022-09-13T14:02:20;4.05;;;3.25;;
44732;SDS011;30460;50.836;4.390;2022-09-13T14:07:41;3.80;;;3.40;;
44732;SDS011;30460;50.836;4.390;2022-09-13T14:10:15;5.35;;;4.63;;
44732;SDS011;30460;50.836;4.390;2022-09-13T14:12:49;6.65;;;4.80;;
44732;SDS011;30460;50.836;4.390;2022-09-13T14:15:53;5.82;;;4.18;;
44732;SDS011;30460;50.836;4.390;2022-09-13T14:18:16;7.05;;;4.80;;
44732;SDS011;30460;50.836;4.390;2022-09-13T14:21:03;4.35;;;3.67;;
44732;SDS011;30460;50.836;4.390;2022-09-13T14:23:29;6.80;;;4.75;;
44732;SDS011;30460;50.836;4.390;2022-09-13T14:25:58;10.07;;;6.68;;
44732;SDS011;30460;50.836;4.390;2022-09-13T14:28:25;4.65;;;4.22;;
44732;SDS011;30460;50.836;4.390;2022-09-13T14:30:54;4.70;;;3.58;;
44732;SDS011;30460;50.836;4.390;2022-09-13T14:33:25;4.38;;;3.60;;
44732;SDS011;30460;50.836;4.390;2022-09-13T14:36:00;4.68;;;3.38;;
44732;SDS011;30460;50.836;4.390;2022-09-13T14:38:30;4.22;;;3.53;;
44732;SDS011;30460;50.836;4.390;2022-09-13T14:43:34;8.60;;;6.05;;
44732;SDS011;30460;50.836;4.390;2022-09-13T14:46:08;4.53;;;4.13;;
44732;SDS011;30460;50.836;4.390;2022-09-13T14:48:52;5.95;;;4.38;;
44732;SDS011;30460;50.836;4.390;2022-09-13T14:51:20;3.85;;;3.40;;
44732;SDS011;30460;50.836;4.390;2022-09-13T14:53:49;10.15;;;5.78;;
44732;SDS011;30460;50.836;4.390;2022-09-13T14:56:39;3.50;;;3.20;;
44732;SDS011;30460;50.836;4.390;2022-09-13T14:59:04;7.97;;;4.93;;
44732;SDS011;30460;50.836;4.390;2022-09-13T15:01:33;6.20;;;4.80;;
44732;SDS011;30460;50.836;4.390;2022-09-13T15:04:00;4.38;;;3.70;;
44732;SDS011;30460;50.836;4.390;2022-09-13T15:06:28;6.57;;;4.53;;
44732;SDS011;30460;50.836;4.390;2022-09-13T15:09:12;9.38;;;5.35;;
44732;SDS011;30460;50.836;4.390;2022-09-13T15:16:46;6.75;;;4.88;;
44732;SDS011;30460;50.836;4.390;2022-09-13T15:21:48;10.90;;;5.20;;
44732;SDS011;30460;50.836;4.390;2022-09-13T15:24:21;11.38;;;5.18;;
44732;SDS011;30460;50.836;4.390;2022-09-13T15:26:59;4.45;;;3.60;;
44732;SDS011;30460;50.836;4.390;2022-09-13T15:29:26;5.20;;;3.80;;
44732;SDS011;30460;50.836;4.390;2022-09-13T15:31:57;3.50;;;3.20;;
44732;SDS011;30460;50.836;4.390;2022-09-13T15:34:23;8.73;;;6.13;;
44732;SDS011;30460;50.836;4.390;2022-09-13T15:39:26;6.57;;;5.45;;
44732;SDS011;30460;50.836;4.390;2022-09-13T15:41:59;6.55;;;5.95;;
44732;SDS011;30460;50.836;4.390;2022-09-13T15:44:26;8.75;;;6.05;;
44732;SDS011;30460;50.836;4.390;2022-09-13T15:47:07;6.45;;;5.60;;
44732;SDS011;30460;50.836;4.390;2022-09-13T15:49:33;5.65;;;5.13;;
44732;SDS011;30460;50.836;4.390;2022-09-13T15:52:00;5.25;;;3.90;;
44732;SDS011;30460;50.836;4.390;2022-09-13T15:54:30;7.13;;;6.38;;
44732;SDS011;30460;50.836;4.390;2022-09-13T15:56:57;4.53;;;3.97;;
44732;SDS011;30460;50.836;4.390;2022-09-13T15:59:23;4.47;;;3.90;;
44732;SDS011;30460;50.836;4.390;2022-09-13T16:01:50;5.97;;;4.47;;
44732;SDS011;30460;50.836;4.390;2022-09-13T16:04:16;3.95;;;3.38;;
44732;SDS011;30460;50.836;4.390;2022-09-13T16:06:42;4.63;;;4.13;;
44732;SDS011;30460;50.836;4.390;2022-09-13T16:09:15;9.13;;;6.63;;
44732;SDS011;30460;50.836;4.390;2022-09-13T16:11:42;10.02;;;6.38;;
44732;SDS011;30460;50.836;4.390;2022-09-13T16:14:08;5.47;;;4.18;;
44732;SDS011;30460;50.836;4.390;2022-09-13T16:16:34;9.48;;;7.43;;
44732;SDS011;30460;50.836;4.390;2022-09-13T16:19:00;9.10;;;7.00;;
44732;SDS011;30460;50.836;4.390;2022-09-13T16:21:26;5.75;;;4.18;;
44732;SDS011;30460;50.836;4.390;2022-09-13T16:23:53;10.88;;;7.28;;
44732;SDS011;30460;50.836;4.390;2022-09-13T16:26:19;5.55;;;3.80;;
44732;SDS011;30460;50.836;4.390;2022-09-13T16:28:45;7.82;;;6.65;;
44732;SDS011;30460;50.836;4.390;2022-09-13T16:31:11;10.45;;;7.38;;
44732;SDS011;30460;50.836;4.390;2022-09-13T16:33:40;4.30;;;3.95;;
44732;SDS011;30460;50.836;4.390;2022-09-13T16:36:07;9.60;;;6.78;;
44732;SDS011;30460;50.836;4.390;2022-09-13T16:38:34;11.23;;;6.93;;
44732;SDS011;30460;50.836;4.390;2022-09-13T16:41:02;9.55;;;6.55;;
44732;SDS011;30460;50.836;4.390;2022-09-13T16:43:29;5.45;;;4.50;;
44732;SDS011;30460;50.836;4.390;2022-09-13T16:45:57;10.48;;;7.35;;
44732;SDS011;30460;50.836;4.390;2022-09-13T16:48:23;13.20;;;7.57;;
44732;SDS011;30460;50.836;4.390;2022-09-13T16:50:49;6.68;;;5.00;;
44732;SDS011;30460;50.836;4.390;2022-09-13T16:53:15;12.40;;;6.80;;
44732;SDS011;30460;50.836;4.390;2022-09-13T16:55:41;12.98;;;6.88;;
44732;SDS011;30460;50.836;4.390;2022-09-13T16:58:09;8.63;;;6.75;;
44732;SDS011;30460;50.836;4.390;2022-09-13T17:00:35;8.27;;;6.75;;
44732;SDS011;30460;50.836;4.390;2022-09-13T17:03:01;8.13;;;6.10;;
44732;SDS011;30460;50.836;4.390;2022-09-13T17:05:27;7.22;;;6.20;;
44732;SDS011;30460;50.836;4.390;2022-09-13T17:07:53;8.45;;;5.45;;
44732;SDS011;30460;50.836;4.390;2022-09-13T17:10:19;8.02;;;5.65;;
44732;SDS011;30460;50.836;4.390;2022-09-13T17:12:45;7.05;;;5.22;;
44732;SDS011;30460;50.836;4.390;2022-09-13T17:15:11;10.82;;;6.25;;
44732;SDS011;30460;50.836;4.390;2022-09-13T17:17:37;8.15;;;5.43;;
44732;SDS011;30460;50.836;4.390;2022-09-13T17:20:04;5.88;;;5.20;;
44732;SDS011;30460;50.836;4.390;2022-09-13T17:22:32;9.25;;;6.30;;
44732;SDS011;30460;50.836;4.390;2022-09-13T17:24:58;6.03;;;4.53;;
44732;SDS011;30460;50.836;4.390;2022-09-13T17:27:31;11.18;;;5.50;;
44732;SDS011;30460;50.836;4.390;2022-09-13T17:29:57;7.38;;;5.20;;
44732;SDS011;30460;50.836;4.390;2022-09-13T17:32:26;8.23;;;6.10;;
44732;SDS011;30460;50.836;4.390;2022-09-13T17:34:52;7.28;;;6.57;;
44732;SDS011;30460;50.836;4.390;2022-09-13T17:37:18;8.27;;;7.10;;
44732;SDS011;30460;50.836;4.390;2022-09-13T17:39:44;10.80;;;7.00;;
44732;SDS011;30460;50.836;4.390;2022-09-13T17:42:12;7.65;;;6.38;;
44732;SDS011;30460;50.836;4.390;2022-09-13T17:44:39;7.68;;;5.97;;
44732;SDS011;30460;50.836;4.390;2022-09-13T17:47:08;9.98;;;6.68;;
44732;SDS011;30460;50.836;4.390;2022-09-13T17:49:34;8.95;;;6.53;;
44732;SDS011;30460;50.836;4.390;2022-09-13T17:52:00;7.55;;;5.35;;
44732;SDS011;30460;50.836;4.390;2022-09-13T17:54:30;6.78;;;5.40;;
44732;SDS011;30460;50.836;4.390;2022-09-13T17:56:57;7.22;;;4.65;;
44732;SDS011;30460;50.836;4.390;2022-09-13T17:59:24;7.22;;;6.18;;
44732;SDS011;30460;50.836;4.390;2022-09-13T18:01:53;10.10;;;7.00;;
44732;SDS011;30460;50.836;4.390;2022-09-13T18:04:22;9.23;;;7.15;;
44732;SDS011;30460;50.836;4.390;2022-09-13T18:06:49;8.95;;;6.57;;
44732;SDS011;30460;50.836;4.390;2022-09-13T18:09:15;7.80;;;6.60;;
44732;SDS011;30460;50.836;4.390;2022-09-13T18:11:41;8.80;;;6.95;;
44732;SDS011;30460;50.836;4.390;2022-09-13T18:14:11;5.22;;;4.72;;
44732;SDS011;30460;50.836;4.390;2022-09-13T18:16:38;6.95;;;6.15;;
44732;SDS011;30460;50.836;4.390;2022-09-13T18:19:04;5.00;;;4.22;;
44732;SDS011;30460;50.836;4.390;2022-09-13T18:21:30;9.02;;;6.55;;